Time;durP1;ratioP1;P1;durP2;ratioP2;P2;SDS_P1;SDS_P2;PMS_P1;PMS_P2;Temp;Humidity;BMP_temperature;BMP_pressure;BME280_temperature;BME280_humidity;BME280_pressure;Samples;Min_cycle;Max_cycle;Signal;HPM_P1;HPM_P2
2022/12/13 00:00:27;;;;;;;38.20;17.90;;;;;;;;;;5071656;28;20229;-76
2022/12/13 00:02:54;;;;;;;37.60;17.83;;;;;;;;;;5086230;28;20295;-77
2022/12/13 00:05:22;;;;;;;38.13;18.13;;;;;;;;;;5072638;28;20242;-76
2022/12/13 00:07:49;;;;;;;37.20;17.50;;;;;;;;;;5074787;28;20727;-76
2022/12/13 00:10:16;;;;;;;40.83;18.20;;;;;;;;;;5089986;28;20218;-76
2022/12/13 00:12:43;;;;;;;37.80;17.00;;;;;;;;;;5079257;28;20308;-76
2022/12/13 00:15:12;;;;;;;33.93;17.10;;;;;;;;;;5072132;28;20660;-76
2022/12/13 00:17:40;;;;;;;37.37;18.00;;;;;;;;;;5078969;28;20250;-76
2022/12/13 00:20:07;;;;;;;40.53;18.77;;;;;;;;;;5088273;28;20708;-76
2022/12/13 00:22:35;;;;;;;39.10;18.30;;;;;;;;;;5091785;28;20291;-76
2022/12/13 00:25:02;;;;;;;43.30;19.17;;;;;;;;;;5086080;28;20200;-76
2022/12/13 00:27:29;;;;;;;37.13;17.63;;;;;;;;;;5071897;28;20235;-76
2022/12/13 00:29:56;;;;;;;40.60;18.87;;;;;;;;;;5087768;28;20308;-76
2022/12/13 00:32:25;;;;;;;38.30;18.60;;;;;;;;;;5092191;28;20270;-76
2022/12/13 00:34:52;;;;;;;36.03;18.60;;;;;;;;;;5077575;28;20201;-76
2022/12/13 00:37:19;;;;;;;39.73;17.67;;;;;;;;;;5086517;28;20249;-76
2022/12/13 00:39:46;;;;;;;43.97;19.67;;;;;;;;;;5087108;28;20212;-76
2022/12/13 00:42:13;;;;;;;39.83;18.27;;;;;;;;;;5071895;28;20288;-77
2022/12/13 00:44:41;;;;;;;42.33;20.10;;;;;;;;;;5071944;28;20235;-76
2022/12/13 00:47:08;;;;;;;37.77;18.40;;;;;;;;;;5075597;28;20254;-76
2022/12/13 00:49:36;;;;;;;41.90;19.00;;;;;;;;;;5081890;28;20242;-76
2022/12/13 00:52:04;;;;;;;40.40;20.17;;;;;;;;;;5076705;28;20246;-77
2022/12/13 00:54:31;;;;;;;40.20;19.10;;;;;;;;;;5093103;28;20230;-76
2022/12/13 00:56:58;;;;;;;42.00;19.37;;;;;;;;;;5092571;28;20691;-76
2022/12/13 00:59:25;;;;;;;43.33;19.57;;;;;;;;;;5093877;28;20227;-76
2022/12/13 01:01:52;;;;;;;39.47;19.57;;;;;;;;;;5088983;28;20228;-77
2022/12/13 01:04:20;;;;;;;42.43;20.47;;;;;;;;;;5080289;28;20211;-76
2022/12/13 01:06:50;;;;;;;40.67;19.47;;;;;;;;;;5073710;28;20203;-76
2022/12/13 01:09:18;;;;;;;41.23;20.13;;;;;;;;;;5073511;28;20199;-76
2022/12/13 01:11:46;;;;;;;39.77;19.77;;;;;;;;;;5075417;28;20200;-76
2022/12/13 01:14:13;;;;;;;39.93;19.03;;;;;;;;;;5082804;28;20245;-77
2022/12/13 01:16:40;;;;;;;43.57;19.80;;;;;;;;;;5095319;28;20574;-76
2022/12/13 01:19:07;;;;;;;41.80;19.63;;;;;;;;;;5088864;28;20260;-76
2022/12/13 01:21:35;;;;;;;38.63;19.63;;;;;;;;;;5081572;28;20279;-76
2022/12/13 01:24:04;;;;;;;40.00;19.23;;;;;;;;;;5093903;28;20289;-76
2022/12/13 01:26:32;;;;;;;40.90;19.43;;;;;;;;;;5089161;28;20230;-77
2022/12/13 01:28:59;;;;;;;42.03;19.43;;;;;;;;;;5088937;28;20250;-76
2022/12/13 01:31:26;;;;;;;39.70;19.27;;;;;;;;;;5087447;28;20570;-76
2022/12/13 01:33:54;;;;;;;39.43;19.33;;;;;;;;;;5078704;28;20286;-76
2022/12/13 01:36:22;;;;;;;35.87;18.57;;;;;;;;;;5074162;28;20250;-76
2022/12/13 01:38:49;;;;;;;39.17;19.40;;;;;;;;;;5074329;28;20648;-76
2022/12/13 01:41:18;;;;;;;37.93;19.00;;;;;;;;;;5074327;28;20205;-76
2022/12/13 01:43:56;;;;;;;38.23;19.43;;;;;;;;;;5073618;28;20636;-77
2022/12/13 01:46:23;;;;;;;37.47;17.80;;;;;;;;;;5074486;28;20601;-76
2022/12/13 01:48:54;;;;;;;43.70;19.00;;;;;;;;;;5073844;28;20261;-76
2022/12/13 01:51:25;;;;;;;39.90;20.20;;;;;;;;;;5073648;28;20191;-76
2022/12/13 01:53:53;;;;;;;41.50;19.10;;;;;;;;;;5078187;28;20269;-77
2022/12/13 01:56:23;;;;;;;38.10;17.83;;;;;;;;;;5087366;28;20662;-76
2022/12/13 01:58:51;;;;;;;41.03;19.43;;;;;;;;;;5074056;28;20230;-76
2022/12/13 02:01:19;;;;;;;40.20;19.90;;;;;;;;;;5076113;28;20258;-77
2022/12/13 02:03:46;;;;;;;50.63;23.63;;;;;;;;;;5087535;28;20245;-76
2022/12/13 02:06:15;;;;;;;50.33;24.67;;;;;;;;;;5091635;28;20204;-77
2022/12/13 02:08:45;;;;;;;51.40;24.50;;;;;;;;;;5080643;28;20295;-76
2022/12/13 02:11:13;;;;;;;49.13;24.33;;;;;;;;;;5075072;28;20200;-76
2022/12/13 02:13:42;;;;;;;40.43;20.10;;;;;;;;;;5093927;28;20292;-76
2022/12/13 02:16:12;;;;;;;41.63;21.30;;;;;;;;;;5075224;28;20242;-76
2022/12/13 02:18:49;;;;;;;37.67;19.50;;;;;;;;;;5076110;28;20750;-76
2022/12/13 02:21:28;;;;;;;40.57;19.97;;;;;;;;;;5082158;28;20256;-76
2022/12/13 02:24:16;;;;;;;39.27;19.20;;;;;;;;;;5073543;28;20195;-76
2022/12/13 02:26:51;;;;;;;39.80;19.60;;;;;;;;;;5073673;28;20250;-77
2022/12/13 02:29:32;;;;;;;37.73;18.60;;;;;;;;;;5088938;28;20250;-76
2022/12/13 02:32:03;;;;;;;37.33;18.60;;;;;;;;;;5079047;28;20677;-76
2022/12/13 02:34:34;;;;;;;39.30;19.30;;;;;;;;;;5093266;28;20227;-76
2022/12/13 02:37:04;;;;;;;37.00;19.07;;;;;;;;;;5076696;28;20678;-76
2022/12/13 02:39:33;;;;;;;39.13;19.50;;;;;;;;;;5073598;28;20203;-77
2022/12/13 02:42:02;;;;;;;40.07;20.53;;;;;;;;;;5072985;28;20199;-76
2022/12/13 02:44:30;;;;;;;38.10;18.47;;;;;;;;;;5073084;28;20203;-76
2022/12/13 02:46:59;;;;;;;39.63;19.70;;;;;;;;;;5072479;28;20199;-76
2022/12/13 02:49:31;;;;;;;37.93;19.00;;;;;;;;;;5078574;28;20199;-77
2022/12/13 02:51:58;;;;;;;39.87;19.73;;;;;;;;;;5086010;28;20260;-76
2022/12/13 02:54:26;;;;;;;38.90;19.33;;;;;;;;;;5086275;28;20277;-77
2022/12/13 02:56:56;;;;;;;39.03;19.50;;;;;;;;;;5078617;28;20645;-76
2022/12/13 02:59:24;;;;;;;39.83;19.87;;;;;;;;;;5088364;28;20229;-76
2022/12/13 03:01:57;;;;;;;37.60;19.23;;;;;;;;;;5082706;28;20747;-77
2022/12/13 03:04:31;;;;;;;34.23;16.83;;;;;;;;;;5078929;28;20226;-76
2022/12/13 03:07:06;;;;;;;36.73;18.57;;;;;;;;;;5093047;28;20234;-76
2022/12/13 03:09:40;;;;;;;37.27;18.63;;;;;;;;;;5089599;28;20206;-77
2022/12/13 03:15:01;;;;;;;39.80;20.70;;;;;;;;;;5085881;28;20570;-76
2022/12/13 03:17:30;;;;;;;37.90;19.37;;;;;;;;;;5082136;28;20199;-76
2022/12/13 03:19:57;;;;;;;38.13;19.23;;;;;;;;;;5091100;28;20683;-76
2022/12/13 03:22:26;;;;;;;38.87;19.73;;;;;;;;;;5092578;28;20568;-76
2022/12/13 03:24:53;;;;;;;33.93;17.47;;;;;;;;;;5092237;28;20275;-76
2022/12/13 03:27:20;;;;;;;38.97;19.00;;;;;;;;;;5078865;28;20253;-76
2022/12/13 03:29:48;;;;;;;39.13;19.50;;;;;;;;;;5078876;28;20718;-77
2022/12/13 03:32:15;;;;;;;37.17;19.13;;;;;;;;;;5087064;28;20261;-76
2022/12/13 03:34:42;;;;;;;35.10;18.77;;;;;;;;;;5092400;28;20220;-76
2022/12/13 03:37:10;;;;;;;35.73;18.97;;;;;;;;;;5083813;28;20203;-76
2022/12/13 03:39:38;;;;;;;36.80;18.73;;;;;;;;;;5089194;28;20228;-76
2022/12/13 03:42:06;;;;;;;36.60;19.37;;;;;;;;;;5072710;28;20262;-76
2022/12/13 03:44:33;;;;;;;36.40;18.53;;;;;;;;;;5079875;28;20648;-77
2022/12/13 03:47:00;;;;;;;34.30;17.67;;;;;;;;;;5080800;28;20199;-76
2022/12/13 03:49:27;;;;;;;35.00;18.80;;;;;;;;;;5075710;28;20230;-76
2022/12/13 03:51:54;;;;;;;35.73;17.93;;;;;;;;;;5080668;28;20237;-76
2022/12/13 03:54:21;;;;;;;35.70;18.67;;;;;;;;;;5074614;28;20327;-77
2022/12/13 03:56:50;;;;;;;36.73;19.03;;;;;;;;;;5079410;28;20224;-76
2022/12/13 03:59:17;;;;;;;34.90;18.07;;;;;;;;;;5087993;28;20259;-76
2022/12/13 04:01:45;;;;;;;32.77;16.77;;;;;;;;;;5091344;28;20257;-76
2022/12/13 04:04:12;;;;;;;31.17;16.87;;;;;;;;;;5074050;28;20556;-76
2022/12/13 04:06:39;;;;;;;32.80;17.70;;;;;;;;;;5072681;28;20203;-76
2022/12/13 04:09:07;;;;;;;33.73;16.40;;;;;;;;;;5071745;28;20241;-76
2022/12/13 04:14:20;;;;;;;34.00;16.83;;;;;;;;;;5091648;28;20225;-76
2022/12/13 04:16:47;;;;;;;32.70;17.30;;;;;;;;;;5086230;28;20609;-77
2022/12/13 04:19:14;;;;;;;33.40;16.57;;;;;;;;;;5077260;28;20203;-76
2022/12/13 04:21:41;;;;;;;33.50;17.57;;;;;;;;;;5095247;28;20291;-77
2022/12/13 04:24:09;;;;;;;34.37;17.07;;;;;;;;;;5096267;28;20226;-76
2022/12/13 04:26:36;;;;;;;31.83;16.57;;;;;;;;;;5095716;28;20574;-76
2022/12/13 04:29:03;;;;;;;32.97;16.70;;;;;;;;;;5075895;28;20246;-76
2022/12/13 04:31:32;;;;;;;33.10;17.53;;;;;;;;;;5075320;28;20201;-76
2022/12/13 04:33:59;;;;;;;30.60;16.20;;;;;;;;;;5075831;28;20312;-76
2022/12/13 04:36:26;;;;;;;30.40;16.27;;;;;;;;;;5075948;28;20246;-76
2022/12/13 04:38:54;;;;;;;32.83;17.27;;;;;;;;;;5089588;28;20254;-77
2022/12/13 04:41:21;;;;;;;31.50;17.03;;;;;;;;;;5095168;28;20227;-76
2022/12/13 04:43:51;;;;;;;33.77;16.67;;;;;;;;;;5095550;28;20191;-76
2022/12/13 04:46:19;;;;;;;33.20;16.27;;;;;;;;;;5095591;28;20287;-77
2022/12/13 04:48:48;;;;;;;29.90;15.97;;;;;;;;;;5094941;28;20250;-76
2022/12/13 04:51:15;;;;;;;31.60;16.90;;;;;;;;;;5080279;28;20230;-76
2022/12/13 04:53:43;;;;;;;32.53;17.43;;;;;;;;;;5094816;28;20215;-77
2022/12/13 04:56:10;;;;;;;32.80;16.80;;;;;;;;;;5094053;28;20205;-76
2022/12/13 04:58:37;;;;;;;30.23;16.70;;;;;;;;;;5095230;28;20606;-77
2022/12/13 05:01:07;;;;;;;34.63;17.40;;;;;;;;;;5094978;28;20289;-76
2022/12/13 05:03:34;;;;;;;30.63;16.83;;;;;;;;;;5085538;28;20282;-76
2022/12/13 05:06:06;;;;;;;30.73;17.27;;;;;;;;;;5079867;28;20203;-76
2022/12/13 05:08:33;;;;;;;33.50;17.07;;;;;;;;;;5095507;28;20237;-76
2022/12/13 05:11:00;;;;;;;32.03;16.63;;;;;;;;;;5095039;28;20207;-77
2022/12/13 05:13:27;;;;;;;31.33;17.43;;;;;;;;;;5095228;28;20262;-77
2022/12/13 05:15:56;;;;;;;32.43;17.33;;;;;;;;;;5084985;28;20643;-77
2022/12/13 05:18:23;;;;;;;32.47;17.17;;;;;;;;;;5074790;28;20202;-77
2022/12/13 05:20:51;;;;;;;31.83;17.10;;;;;;;;;;5087815;28;20246;-77
2022/12/13 05:23:19;;;;;;;30.70;16.63;;;;;;;;;;5095347;28;20205;-77
2022/12/13 05:25:47;;;;;;;32.53;16.60;;;;;;;;;;5076235;28;20205;-76
2022/12/13 05:28:14;;;;;;;33.13;17.13;;;;;;;;;;5088785;28;20237;-77
2022/12/13 05:30:41;;;;;;;34.20;17.03;;;;;;;;;;5092876;28;20221;-77
2022/12/13 05:33:09;;;;;;;33.30;16.43;;;;;;;;;;5080515;28;20251;-77
2022/12/13 05:35:36;;;;;;;33.57;17.23;;;;;;;;;;5088851;28;20198;-77
2022/12/13 05:38:05;;;;;;;32.70;16.23;;;;;;;;;;5083437;28;20262;-77
2022/12/13 05:40:34;;;;;;;31.63;16.80;;;;;;;;;;5074533;28;20213;-77
2022/12/13 05:43:01;;;;;;;30.40;16.03;;;;;;;;;;5084361;28;20207;-77
2022/12/13 05:45:29;;;;;;;31.87;16.80;;;;;;;;;;5074339;28;20567;-77
2022/12/13 05:47:56;;;;;;;31.03;16.83;;;;;;;;;;5074413;28;20529;-77
2022/12/13 05:50:23;;;;;;;31.60;16.67;;;;;;;;;;5091511;28;20232;-77
2022/12/13 05:52:51;;;;;;;31.23;17.07;;;;;;;;;;5088384;28;20223;-76
2022/12/13 05:55:18;;;;;;;34.30;18.27;;;;;;;;;;5094806;28;20607;-76
2022/12/13 05:57:47;;;;;;;36.73;18.37;;;;;;;;;;5094189;28;20201;-76
2022/12/13 06:00:15;;;;;;;31.47;17.07;;;;;;;;;;5074096;28;20201;-77
2022/12/13 06:02:43;;;;;;;32.07;16.90;;;;;;;;;;5073743;28;20273;-77
2022/12/13 06:05:10;;;;;;;31.37;16.10;;;;;;;;;;5074067;28;20200;-76
2022/12/13 06:07:38;;;;;;;32.10;17.67;;;;;;;;;;5073136;28;20204;-77
2022/12/13 06:10:07;;;;;;;29.40;16.60;;;;;;;;;;5093510;28;20231;-76
2022/12/13 06:12:35;;;;;;;34.60;17.90;;;;;;;;;;5093941;28;20622;-78
2022/12/13 06:15:04;;;;;;;34.20;17.47;;;;;;;;;;5093042;28;20564;-81
2022/12/13 06:17:32;;;;;;;32.50;17.67;;;;;;;;;;5093928;28;20204;-76
2022/12/13 06:19:59;;;;;;;33.63;18.13;;;;;;;;;;5092950;28;20210;-79
2022/12/13 06:22:27;;;;;;;32.50;17.87;;;;;;;;;;5087995;28;20242;-79
2022/12/13 06:24:54;;;;;;;34.83;17.97;;;;;;;;;;5083825;28;20202;-77
2022/12/13 06:27:21;;;;;;;33.27;17.20;;;;;;;;;;5078998;28;20203;-78
2022/12/13 06:29:49;;;;;;;36.73;18.20;;;;;;;;;;5075993;28;20757;-79
2022/12/13 06:32:17;;;;;;;34.17;17.97;;;;;;;;;;5081087;28;20237;-79
2022/12/13 06:34:44;;;;;;;33.37;17.93;;;;;;;;;;5089380;28;20265;-79
2022/12/13 06:37:13;;;;;;;38.13;20.20;;;;;;;;;;5089243;28;20249;-79
2022/12/13 06:39:40;;;;;;;68.07;32.17;;;;;;;;;;5072867;28;20235;-80
2022/12/13 06:42:08;;;;;;;445.30;210.37;;;;;;;;;;5082196;28;20207;-80
2022/12/13 06:44:35;;;;;;;267.57;95.13;;;;;;;;;;5073071;28;20196;-80
2022/12/13 06:47:03;;;;;;;54.20;24.80;;;;;;;;;;5076381;28;21737;-77
2022/12/13 06:49:31;;;;;;;58.03;26.23;;;;;;;;;;5077743;28;20627;-77
2022/12/13 06:51:59;;;;;;;156.27;50.23;;;;;;;;;;5086516;28;20199;-80
2022/12/13 06:54:26;;;;;;;754.10;316.70;;;;;;;;;;5092647;28;20259;-80
2022/12/13 06:56:53;;;;;;;186.50;78.97;;;;;;;;;;5092943;28;20204;-79
2022/12/13 06:59:21;;;;;;;260.10;106.57;;;;;;;;;;5092560;28;20207;-79
2022/12/13 07:01:48;;;;;;;204.20;83.07;;;;;;;;;;5092268;28;20270;-80
2022/12/13 07:04:15;;;;;;;217.83;105.37;;;;;;;;;;5081368;28;20225;-80
2022/12/13 07:06:44;;;;;;;40.63;21.97;;;;;;;;;;5077592;28;20226;-80
2022/12/13 07:09:11;;;;;;;66.57;34.50;;;;;;;;;;5092643;28;20206;-80
2022/12/13 07:11:38;;;;;;;93.77;51.67;;;;;;;;;;5092620;28;20304;-79
2022/12/13 07:14:06;;;;;;;155.03;86.87;;;;;;;;;;5092677;28;20292;-79
2022/12/13 07:16:33;;;;;;;44.20;25.67;;;;;;;;;;5092158;28;20669;-80
2022/12/13 07:19:03;;;;;;;71.63;43.67;;;;;;;;;;5092412;28;20239;-80
2022/12/13 07:21:30;;;;;;;33.40;18.73;;;;;;;;;;5092587;28;20203;-79
2022/12/13 07:24:00;;;;;;;38.00;24.10;;;;;;;;;;5092130;28;20605;-79
2022/12/13 07:26:27;;;;;;;37.97;21.17;;;;;;;;;;5093017;28;20286;-80
2022/12/13 07:28:54;;;;;;;36.27;22.37;;;;;;;;;;5092664;28;20258;-79
2022/12/13 07:31:22;;;;;;;42.97;23.90;;;;;;;;;;5092727;28;20242;-80
2022/12/13 07:33:50;;;;;;;36.63;22.43;;;;;;;;;;5090009;28;20218;-80
2022/12/13 07:36:18;;;;;;;33.13;17.23;;;;;;;;;;5072442;28;20196;-79
2022/12/13 07:38:45;;;;;;;30.73;17.27;;;;;;;;;;5071910;28;20226;-80
2022/12/13 07:41:14;;;;;;;41.10;21.10;;;;;;;;;;5072349;28;20242;-79
2022/12/13 07:43:41;;;;;;;34.30;18.77;;;;;;;;;;5072166;28;20235;-80
2022/12/13 07:46:10;;;;;;;37.43;21.60;;;;;;;;;;5086039;28;20253;-80
2022/12/13 07:48:37;;;;;;;36.67;20.40;;;;;;;;;;5082934;28;20195;-80
2022/12/13 07:51:05;;;;;;;36.23;20.17;;;;;;;;;;5092471;28;20238;-80
2022/12/13 07:53:36;;;;;;;33.33;20.67;;;;;;;;;;5084694;28;20625;-80
2022/12/13 07:56:03;;;;;;;33.33;18.33;;;;;;;;;;5074622;28;20233;-80
2022/12/13 07:58:33;;;;;;;30.17;17.63;;;;;;;;;;5088011;28;20682;-80
2022/12/13 08:01:00;;;;;;;29.23;15.07;;;;;;;;;;5096004;28;20238;-80
2022/12/13 08:03:28;;;;;;;31.10;16.30;;;;;;;;;;5093859;28;20215;-79
2022/12/13 08:06:02;;;;;;;30.37;16.73;;;;;;;;;;5094103;28;20196;-80
2022/12/13 08:08:29;;;;;;;29.63;15.33;;;;;;;;;;5096411;28;20615;-80
2022/12/13 08:11:00;;;;;;;31.40;16.07;;;;;;;;;;5096040;28;20675;-79
2022/12/13 08:13:27;;;;;;;28.80;16.10;;;;;;;;;;5096689;28;20199;-80
2022/12/13 08:16:00;;;;;;;27.20;15.43;;;;;;;;;;5096005;28;20669;-80
2022/12/13 08:18:27;;;;;;;29.40;16.27;;;;;;;;;;5096712;28;20289;-80
2022/12/13 08:20:58;;;;;;;28.43;16.17;;;;;;;;;;5096250;28;20201;-80
2022/12/13 08:23:25;;;;;;;28.87;16.13;;;;;;;;;;5096216;28;20235;-80
2022/12/13 08:25:53;;;;;;;27.93;15.67;;;;;;;;;;5089428;28;20226;-80
2022/12/13 08:28:20;;;;;;;24.73;15.27;;;;;;;;;;5076008;28;20260;-80
2022/12/13 08:30:48;;;;;;;25.70;15.07;;;;;;;;;;5075359;28;20713;-80
2022/12/13 08:33:17;;;;;;;26.93;14.97;;;;;;;;;;5075439;28;20202;-80
2022/12/13 08:35:44;;;;;;;25.90;14.73;;;;;;;;;;5076940;28;20221;-80
2022/12/13 08:38:12;;;;;;;27.13;15.83;;;;;;;;;;5088227;28;20232;-80
2022/12/13 08:40:39;;;;;;;28.17;15.07;;;;;;;;;;5096163;28;20280;-80
2022/12/13 08:43:06;;;;;;;27.73;15.30;;;;;;;;;;5095192;28;20208;-80
2022/12/13 08:45:33;;;;;;;25.90;14.70;;;;;;;;;;5096162;28;20246;-80
2022/12/13 08:48:02;;;;;;;25.17;14.90;;;;;;;;;;5094711;28;20205;-80
2022/12/13 08:50:31;;;;;;;24.37;14.17;;;;;;;;;;5095711;28;20308;-80
2022/12/13 08:52:58;;;;;;;24.73;14.80;;;;;;;;;;5095641;28;20234;-80
2022/12/13 08:55:26;;;;;;;24.53;15.37;;;;;;;;;;5095939;28;20316;-80
2022/12/13 08:57:53;;;;;;;24.40;15.13;;;;;;;;;;5095179;28;20229;-80
2022/12/13 09:00:20;;;;;;;21.87;15.00;;;;;;;;;;5095644;28;20230;-80
2022/12/13 09:02:48;;;;;;;22.33;14.63;;;;;;;;;;5076748;28;20265;-80
2022/12/13 09:05:15;;;;;;;21.97;14.13;;;;;;;;;;5081399;28;20274;-80
2022/12/13 09:07:44;;;;;;;21.47;13.37;;;;;;;;;;5094938;28;20244;-80
2022/12/13 09:10:12;;;;;;;24.93;15.43;;;;;;;;;;5095032;28;20194;-80
2022/12/13 09:12:42;;;;;;;24.20;14.37;;;;;;;;;;5095024;28;20198;-80
2022/12/13 09:15:10;;;;;;;25.43;14.73;;;;;;;;;;5094751;28;20314;-80
2022/12/13 09:17:37;;;;;;;25.00;14.43;;;;;;;;;;5095041;28;20200;-80
2022/12/13 09:20:06;;;;;;;25.37;14.63;;;;;;;;;;5094955;28;20234;-80
2022/12/13 09:22:34;;;;;;;26.27;14.53;;;;;;;;;;5088410;28;20236;-80
2022/12/13 09:25:02;;;;;;;25.77;15.10;;;;;;;;;;5074727;28;20637;-80
2022/12/13 09:27:29;;;;;;;25.27;14.50;;;;;;;;;;5074916;28;20623;-80
2022/12/13 09:29:57;;;;;;;23.67;13.87;;;;;;;;;;5074559;28;20219;-80
2022/12/13 09:32:24;;;;;;;25.50;14.83;;;;;;;;;;5092530;28;20200;-80
2022/12/13 09:34:51;;;;;;;26.13;14.80;;;;;;;;;;5094865;28;20243;-80
2022/12/13 09:37:18;;;;;;;24.93;14.37;;;;;;;;;;5092876;28;20234;-80
2022/12/13 09:39:46;;;;;;;23.23;13.83;;;;;;;;;;5095051;28;20307;-80
2022/12/13 09:42:19;;;;;;;24.37;14.10;;;;;;;;;;5088957;28;20277;-80
2022/12/13 09:44:50;;;;;;;22.63;13.67;;;;;;;;;;5074624;28;20197;-80
2022/12/13 09:47:23;;;;;;;25.30;14.90;;;;;;;;;;5084786;28;20275;-80
2022/12/13 09:49:51;;;;;;;23.13;14.40;;;;;;;;;;5078282;28;20201;-80
2022/12/13 09:52:19;;;;;;;23.70;13.63;;;;;;;;;;5082771;28;20681;-80
2022/12/13 09:54:54;;;;;;;24.57;13.60;;;;;;;;;;5094662;28;20265;-80
2022/12/13 09:57:25;;;;;;;25.53;14.67;;;;;;;;;;5092691;28;20222;-81
2022/12/13 09:59:52;;;;;;;27.83;14.97;;;;;;;;;;5074096;28;20199;-80
2022/12/13 10:02:23;;;;;;;26.17;14.67;;;;;;;;;;5073639;28;20285;-80
2022/12/13 10:04:51;;;;;;;24.80;14.17;;;;;;;;;;5074016;28;20220;-80
2022/12/13 10:07:19;;;;;;;22.90;13.93;;;;;;;;;;5081534;28;20202;-80
2022/12/13 10:09:47;;;;;;;25.50;12.57;;;;;;;;;;5094054;28;20245;-80
2022/12/13 10:12:15;;;;;;;23.90;14.27;;;;;;;;;;5094286;28;20285;-80
2022/12/13 10:14:47;;;;;;;24.57;14.00;;;;;;;;;;5076377;28;20218;-81
2022/12/13 10:17:17;;;;;;;22.53;13.00;;;;;;;;;;5073161;28;20212;-80
2022/12/13 10:19:45;;;;;;;22.70;12.97;;;;;;;;;;5073474;28;20218;-81
2022/12/13 10:22:14;;;;;;;24.37;14.10;;;;;;;;;;5074058;28;20231;-81
2022/12/13 10:24:52;;;;;;;22.20;13.17;;;;;;;;;;5073645;28;20199;-80
2022/12/13 10:27:21;;;;;;;20.70;13.63;;;;;;;;;;5073554;28;20202;-81
2022/12/13 10:30:04;;;;;;;20.13;13.20;;;;;;;;;;5073800;28;20228;-81
2022/12/13 10:32:33;;;;;;;20.70;13.07;;;;;;;;;;5073748;28;20198;-80
2022/12/13 10:35:00;;;;;;;20.83;13.30;;;;;;;;;;5093866;28;20699;-80
2022/12/13 10:37:29;;;;;;;21.03;13.63;;;;;;;;;;5093642;28;20302;-81
2022/12/13 10:39:57;;;;;;;20.07;12.60;;;;;;;;;;5093631;28;20266;-80
2022/12/13 10:42:24;;;;;;;21.07;13.13;;;;;;;;;;5093866;28;20209;-81
2022/12/13 10:45:09;;;;;;;21.20;13.20;;;;;;;;;;5091545;28;20682;-81
2022/12/13 10:47:38;;;;;;;18.37;12.40;;;;;;;;;;5072689;28;20196;-81
2022/12/13 10:50:06;;;;;;;25.20;13.90;;;;;;;;;;5084758;28;20626;-81
2022/12/13 10:52:34;;;;;;;20.43;12.87;;;;;;;;;;5093214;28;20270;-80
2022/12/13 10:55:04;;;;;;;23.43;13.83;;;;;;;;;;5072851;28;20242;-81
2022/12/13 10:57:32;;;;;;;21.33;13.03;;;;;;;;;;5072869;28;20776;-81
2022/12/13 10:59:59;;;;;;;21.10;13.07;;;;;;;;;;5072883;28;20252;-81
2022/12/13 11:02:30;;;;;;;18.20;11.93;;;;;;;;;;5072469;28;20234;-81
2022/12/13 11:05:00;;;;;;;23.50;12.53;;;;;;;;;;5072871;28;20224;-80
2022/12/13 11:07:29;;;;;;;19.47;12.77;;;;;;;;;;5072767;28;20199;-81
2022/12/13 11:09:56;;;;;;;20.47;12.33;;;;;;;;;;5072890;28;20257;-80
2022/12/13 11:12:25;;;;;;;22.50;13.17;;;;;;;;;;5073505;28;20634;-80
2022/12/13 11:14:55;;;;;;;19.03;12.90;;;;;;;;;;5072196;28;20738;-81
2022/12/13 11:17:23;;;;;;;21.77;13.23;;;;;;;;;;5072131;28;20550;-80
2022/12/13 11:19:52;;;;;;;20.00;12.77;;;;;;;;;;5072128;28;20226;-80
2022/12/13 11:22:22;;;;;;;22.33;13.13;;;;;;;;;;5073179;28;20200;-80
2022/12/13 11:24:51;;;;;;;18.90;12.57;;;;;;;;;;5072599;28;20199;-81
2022/12/13 11:27:29;;;;;;;23.37;12.67;;;;;;;;;;5072857;28;20251;-80
2022/12/13 11:30:17;;;;;;;20.77;13.00;;;;;;;;;;5072132;28;20245;-81
2022/12/13 11:32:53;;;;;;;20.10;12.13;;;;;;;;;;5067634;28;20241;-81
2022/12/13 11:35:23;;;;;;;21.03;12.93;;;;;;;;;;5072556;28;20219;-80
2022/12/13 11:37:57;;;;;;;22.47;12.83;;;;;;;;;;5072166;28;20580;-80
2022/12/13 11:40:25;;;;;;;21.33;12.80;;;;;;;;;;5072754;28;20237;-81
2022/12/13 11:42:54;;;;;;;20.67;13.00;;;;;;;;;;5071945;28;20235;-81
2022/12/13 11:45:25;;;;;;;19.40;12.43;;;;;;;;;;5072674;28;20611;-80
2022/12/13 11:47:57;;;;;;;22.13;12.87;;;;;;;;;;5072286;28;20236;-81
2022/12/13 11:50:35;;;;;;;21.17;12.80;;;;;;;;;;5072333;28;20233;-81
2022/12/13 11:53:18;;;;;;;22.73;12.30;;;;;;;;;;5072420;28;20558;-80
2022/12/13 11:55:50;;;;;;;21.27;12.57;;;;;;;;;;5072119;28;20290;-80
2022/12/13 11:58:22;;;;;;;19.63;12.30;;;;;;;;;;5072181;28;20206;-81
2022/12/13 12:00:51;;;;;;;20.20;12.57;;;;;;;;;;5071830;28;20252;-81
2022/12/13 12:03:19;;;;;;;20.67;12.80;;;;;;;;;;5072122;28;20308;-81
2022/12/13 12:05:49;;;;;;;19.97;12.47;;;;;;;;;;5072189;28;20659;-80
2022/12/13 12:08:21;;;;;;;22.67;12.77;;;;;;;;;;5071792;28;20249;-80
2022/12/13 12:10:49;;;;;;;19.37;12.03;;;;;;;;;;5072038;28;20256;-81
2022/12/13 12:13:18;;;;;;;21.60;13.13;;;;;;;;;;5071192;28;20203;-81
2022/12/13 12:15:48;;;;;;;20.30;12.90;;;;;;;;;;5071705;28;20260;-81
2022/12/13 12:18:16;;;;;;;20.37;12.63;;;;;;;;;;5072012;28;20589;-81
2022/12/13 12:20:47;;;;;;;19.00;12.40;;;;;;;;;;5072123;28;20207;-80
2022/12/13 12:23:20;;;;;;;20.40;12.73;;;;;;;;;;5071497;28;20233;-81
2022/12/13 12:25:52;;;;;;;21.97;12.73;;;;;;;;;;5072680;28;20287;-80
2022/12/13 12:28:25;;;;;;;19.97;12.13;;;;;;;;;;5071649;28;20627;-81
2022/12/13 12:30:57;;;;;;;19.80;12.60;;;;;;;;;;5072050;28;20219;-81
2022/12/13 12:33:31;;;;;;;25.80;12.70;;;;;;;;;;5072366;28;20227;-81
2022/12/13 12:36:06;;;;;;;20.07;12.63;;;;;;;;;;5071389;28;20801;-80
2022/12/13 12:38:47;;;;;;;20.23;12.87;;;;;;;;;;5071725;28;20237;-80
2022/12/13 12:41:23;;;;;;;19.50;13.03;;;;;;;;;;5072744;28;20238;-80
2022/12/13 12:43:55;;;;;;;21.07;13.03;;;;;;;;;;5075571;28;20200;-81
2022/12/13 12:46:32;;;;;;;18.80;13.23;;;;;;;;;;5075467;28;20674;-81
2022/12/13 12:49:08;;;;;;;19.13;12.30;;;;;;;;;;5075531;28;20255;-81
2022/12/13 12:51:39;;;;;;;20.43;12.77;;;;;;;;;;5075266;28;20224;-80
2022/12/13 12:54:21;;;;;;;20.60;12.33;;;;;;;;;;5075473;28;20546;-79
2022/12/13 12:56:52;;;;;;;19.97;12.70;;;;;;;;;;5073597;28;20303;-80
2022/12/13 12:59:24;;;;;;;17.93;11.83;;;;;;;;;;5075210;28;20234;-80
2022/12/13 13:01:54;;;;;;;18.90;11.50;;;;;;;;;;5074253;28;20270;-80
2022/12/13 13:04:26;;;;;;;19.20;12.23;;;;;;;;;;5074594;28;20193;-80
2022/12/13 13:06:56;;;;;;;18.60;11.23;;;;;;;;;;5075596;28;20261;-80
2022/12/13 13:09:24;;;;;;;17.53;12.27;;;;;;;;;;5075204;28;20232;-80
2022/12/13 13:11:53;;;;;;;20.07;12.43;;;;;;;;;;5074861;28;20288;-80
2022/12/13 13:14:28;;;;;;;19.17;12.60;;;;;;;;;;5074753;28;20230;-79
2022/12/13 13:16:56;;;;;;;20.70;12.03;;;;;;;;;;5074896;28;20224;-79
2022/12/13 13:19:42;;;;;;;18.60;12.50;;;;;;;;;;5074702;28;20225;-79
2022/12/13 13:22:24;;;;;;;19.43;13.00;;;;;;;;;;5074464;28;20717;-79
2022/12/13 13:24:59;;;;;;;19.87;12.50;;;;;;;;;;5075152;28;20207;-79
2022/12/13 13:27:29;;;;;;;18.90;11.67;;;;;;;;;;5074537;28;20194;-79
2022/12/13 13:30:06;;;;;;;18.50;12.13;;;;;;;;;;5074672;28;20781;-79
2022/12/13 13:32:34;;;;;;;21.57;14.17;;;;;;;;;;5074556;28;20234;-79
2022/12/13 13:35:19;;;;;;;20.63;13.47;;;;;;;;;;5074660;28;20683;-79
2022/12/13 13:37:47;;;;;;;21.30;12.17;;;;;;;;;;5074578;28;20288;-80
2022/12/13 13:40:29;;;;;;;19.47;11.90;;;;;;;;;;5074219;28;20261;-79
2022/12/13 13:43:07;;;;;;;20.73;12.53;;;;;;;;;;5074320;28;20202;-79
2022/12/13 13:45:49;;;;;;;19.33;11.77;;;;;;;;;;5074654;28;20196;-79
2022/12/13 13:48:25;;;;;;;21.67;11.17;;;;;;;;;;5074145;28;20264;-79
2022/12/13 13:51:10;;;;;;;18.90;11.93;;;;;;;;;;5074490;28;20199;-79
2022/12/13 13:54:11;;;;;;;20.27;12.57;;;;;;;;;;5072852;28;20234;-79
2022/12/13 13:56:59;;;;;;;18.33;11.50;;;;;;;;;;5073992;28;20269;-80
2022/12/13 13:59:41;;;;;;;19.10;11.73;;;;;;;;;;5030372;28;20211;-79
2022/12/13 14:02:39;;;;;;;19.63;12.07;;;;;;;;;;5029293;28;20310;-79
2022/12/13 14:05:22;;;;;;;16.87;11.60;;;;;;;;;;5031420;28;20240;-79
2022/12/13 14:08:08;;;;;;;20.33;12.03;;;;;;;;;;5031966;28;20358;-79
2022/12/13 14:10:43;;;;;;;19.57;12.13;;;;;;;;;;5031332;28;20595;-79
2022/12/13 14:13:29;;;;;;;19.33;11.63;;;;;;;;;;5031816;28;20254;-79
2022/12/13 14:16:19;;;;;;;18.80;11.20;;;;;;;;;;5031523;28;20224;-79
2022/12/13 14:19:04;;;;;;;17.57;11.63;;;;;;;;;;5031385;28;20200;-79
2022/12/13 14:21:40;;;;;;;18.97;12.00;;;;;;;;;;5017854;28;20288;-79
2022/12/13 14:24:15;;;;;;;18.70;11.77;;;;;;;;;;5031270;28;20631;-79
2022/12/13 14:26:51;;;;;;;19.80;11.43;;;;;;;;;;5031194;28;20238;-79
2022/12/13 14:29:21;;;;;;;18.37;11.60;;;;;;;;;;5031640;28;20658;-80
2022/12/13 14:31:49;;;;;;;20.80;12.50;;;;;;;;;;5031263;28;20549;-79
2022/12/13 14:34:20;;;;;;;18.50;11.80;;;;;;;;;;5031585;28;20243;-79
2022/12/13 14:36:54;;;;;;;18.33;11.90;;;;;;;;;;5069048;28;20247;-79